Latest Weather Observations for Ouse

IDT60801

Issued at 3:31 pm EDT Monday 30 March 2015 (issued every 30 minutes, with the page automatically refreshed every 10 minutes)

About weather observations | Map of weather stations | Latest weather observations for TAS | Other Formats
Station Details ID: 095048 Name: OUSE FIRE STATION Lat: -42.48 Lon: 146.71 Height: 90.0 m
Data from the previous 72 hours. | See also: Recent months at Ouse
Date/Time
EDT
Temp
°C
App
Temp
°C
Dew
Point
Rel
Hum
%
Delta-T
°C
Wind Press
QNH
hPa
Press
MSL
hPa
Rain
since 9 am
mm
Dir
 
Spd
km/h
Gust
km/h
Spd
kts
Gust
kts
30/03:30pm 20.9 15.3 8.9 46 6.4 WNW 28 39 15 21 1019.0 1018.9 0.0
30/03:00pm 19.3 15.5 9.2 52 5.3 WNW 19 28 10 15 1018.6 1018.5 0.0
30/02:30pm 20.0 15.6 9.0 49 5.8 WNW 22 35 12 19 1018.8 1018.7 0.0
30/02:00pm 19.5 15.1 9.1 51 5.5 NW 22 35 12 19 1018.8 1018.7 0.0
30/01:30pm 19.5 14.8 9.4 52 5.4 WNW 24 41 13 22 1019.1 1019.0 0.0
30/01:11pm 19.0 13.5 9.2 53 5.2 WNW 28 46 15 25 1019.4 1019.3 0.0
30/01:00pm 18.2 13.0 9.0 55 4.8 WNW 26 41 14 22 1019.4 1019.3 0.0
30/12:32pm 18.8 13.4 9.6 55 4.9 WNW 28 46 15 25 1019.4 1019.3 0.0
30/12:30pm 18.9 13.9 9.4 54 5.0 WNW 26 43 14 23 1019.4 1019.3 0.0
30/12:00pm 18.6 15.9 10.2 58 4.5 NW 15 26 8 14 1019.5 1019.4 0.0
30/11:30am 18.3 15.2 10.4 60 4.2 WNW 17 37 9 20 1019.4 1019.3 0.0
30/11:00am 17.7 15.1 10.8 64 3.7 WNW 15 30 8 16 1019.2 1019.1 0.0
30/10:30am 17.6 14.9 10.5 63 3.8 WNW 15 26 8 14 1018.9 1018.8 0.0
30/10:00am 16.9 14.2 10.3 65 3.5 WNW 15 24 8 13 1018.8 1018.7 0.0
30/09:30am 16.5 14.8 9.9 65 3.5 NNW 9 20 5 11 1018.7 1018.6 0.0
30/09:00am 16.0 13.9 9.7 66 3.3 NNW 11 22 6 12 1018.5 1018.4 0.0
30/08:30am 15.1 13.3 9.5 69 2.9 NNW 9 17 5 9 1018.3 1018.2 0.0
30/08:00am 13.8 11.4 8.8 72 2.5 NNW 11 19 6 10 1018.2 1018.1 0.0
30/07:30am 14.1 11.3 8.5 69 2.8 NW 13 20 7 11 1018.0 1017.9 0.0
30/07:00am 14.6 11.9 8.8 68 2.9 NW 13 19 7 10 1017.9 1017.8 0.0
30/06:30am 15.0 11.5 8.7 66 3.2 NW 17 24 9 13 1017.6 1017.5 0.0
30/06:00am 15.0 11.8 8.5 65 3.3 NW 15 26 8 14 1017.6 1017.5 0.0
30/05:30am 15.3 11.7 8.5 64 3.5 NW 17 24 9 13 1017.5 1017.4 0.0
30/05:00am 15.3 11.3 8.3 63 3.5 NW 19 30 10 16 1017.3 1017.2 0.0
30/04:30am 15.3 11.7 8.5 64 3.5 NW 17 32 9 17 1017.3 1017.2 0.0
30/04:00am 15.3 11.4 8.8 65 3.3 NW 19 32 10 17 1017.2 1017.1 0.0
30/03:30am 15.5 11.6 9.4 67 3.2 NW 20 32 11 17 1017.1 1017.0 0.0
30/03:00am 14.6 11.6 9.4 71 2.7 NW 15 30 8 16 1017.2 1017.1 0.0
30/02:30am 12.4 9.8 9.4 82 1.5 NNW 13 20 7 11 1017.2 1017.1 0.0
30/02:00am 12.9 10.5 10.1 83 1.4 NW 13 22 7 12 1017.4 1017.3 0.0
30/01:30am 11.5 9.0 9.8 89 0.9 NW 13 20 7 11 1017.4 1017.3 0.0
30/01:00am 10.5 8.6 8.9 90 0.8 N 9 13 5 7 1017.7 1017.6 0.0
30/12:30am 11.0 9.5 9.3 89 0.9 NNE 7 11 4 6 1017.7 1017.6 0.0
30/12:00am 10.5 8.9 8.8 89 0.8 N 7 13 4 7 1017.7 1017.6 0.0
 
Date/Time
EDT
Temp
°C
App
Temp
°C
Dew
Point
Rel
Hum
%
Delta-T
°C
Wind Press
QNH
hPa
Press
MSL
hPa
Rain
since 9 am
mm
Dir
 
Spd
km/h
Gust
km/h
Spd
kts
Gust
kts
29/11:30pm 11.1 8.9 9.4 89 0.9 NNE 11 19 6 10 1017.8 1017.7 0.0
29/11:00pm 11.3 9.2 9.7 90 0.8 NNE 11 17 6 9 1018.0 1017.9 0.0
29/10:30pm 10.5 8.9 8.8 89 0.8 N 7 11 4 6 1018.1 1018.0 0.0
29/10:00pm 11.3 10.3 9.0 86 1.1 WNW 4 9 2 5 1018.2 1018.1 0.0
29/09:30pm 13.3 11.6 9.9 80 1.8 WNW 9 13 5 7 1018.0 1017.9 0.0
29/09:00pm 14.3 12.7 10.3 77 2.1 W 9 13 5 7 1017.8 1017.7 0.0
29/08:30pm 15.0 13.5 10.6 75 2.3 WNW 9 13 5 7 1017.6 1017.5 0.0
29/08:00pm 15.2 13.8 10.8 75 2.3 NW 9 13 5 7 1017.2 1017.1 0.0
29/07:30pm 15.7 13.9 10.9 73 2.6 NW 11 17 6 9 1016.8 1016.7 0.0
29/07:00pm 15.6 12.8 11.2 75 2.4 NW 17 26 9 14 1016.6 1016.5 0.0
29/06:30pm 16.7 14.9 11.0 69 3.1 NW 11 17 6 9 1016.3 1016.2 0.0
29/06:00pm 17.3 14.6 10.4 64 3.7 WNW 15 24 8 13 1015.7 1015.7 0.0
29/05:30pm 17.7 14.0 10.1 61 4.0 W 20 35 11 19 1015.4 1015.4 0.0
29/05:00pm 18.6 15.0 10.4 59 4.4 W 20 32 11 17 1015.2 1015.2 0.0
29/04:30pm 19.3 16.4 11.1 59 4.5 WNW 17 32 9 17 1014.8 1014.8 0.0
29/04:00pm 19.3 15.8 10.8 58 4.6 WNW 20 33 11 18 1014.9 1014.9 0.0
29/03:30pm 18.0 16.1 12.9 72 2.9 NW 15 22 8 12 1014.8 1014.8 0.0
29/03:00pm 16.6 15.0 12.9 79 2.1 WNW 13 24 7 13 1014.9 1014.9 0.0
29/02:30pm 17.0 14.9 12.5 75 2.5 N 15 22 8 12 1014.7 1014.7 0.0
29/02:00pm 17.2 14.3 11.0 67 3.3 NNW 17 26 9 14 1014.7 1014.7 0.0
29/01:30pm 17.8 15.4 11.4 66 3.5 N 15 22 8 12 1014.6 1014.6 0.0
29/01:00pm 17.1 14.6 10.9 67 3.3 NW 15 22 8 12 1014.8 1014.8 0.0
29/12:30pm 17.3 14.3 10.7 65 3.5 NW 17 28 9 15 1014.9 1014.9 0.0
29/12:00pm 17.0 13.4 9.9 63 3.7 NW 19 26 10 14 1014.9 1014.9 0.0
29/11:30am 16.6 13.3 9.5 63 3.7 NW 17 26 9 14 1015.1 1015.1 0.0
29/11:00am 15.7 13.1 9.4 66 3.3 NNW 13 17 7 9 1015.3 1015.3 0.0
29/10:30am 15.4 12.7 9.1 66 3.2 N 13 17 7 9 1015.0 1015.0 0.0
29/10:00am 14.9 12.5 8.8 67 3.1 N 11 19 6 10 1015.0 1015.0 0.0
29/09:30am 14.6 12.2 8.5 67 3.1 NNW 11 17 6 9 1015.0 1015.0 0.0
29/09:00am 14.6 12.2 8.5 67 3.1 N 11 19 6 10 1014.9 1014.9 0.0
29/08:30am 13.7 10.8 8.3 70 2.7 N 13 22 7 12 1014.8 1014.8 0.0
29/08:00am 12.2 10.0 7.7 74 2.2 NNW 9 13 5 7 1015.2 1015.2 0.0
29/07:30am 12.4 9.7 7.5 72 2.4 NNW 11 19 6 10 1014.7 1014.7 0.0
29/07:00am 12.6 9.3 7.9 73 2.3 NNE 15 20 8 11 1014.8 1014.8 0.0
29/06:30am 11.6 8.9 7.5 76 2.0 N 11 20 6 11 1014.9 1014.9 0.0
29/06:00am 12.3 9.2 7.2 71 2.5 NNW 13 19 7 10 1015.0 1015.0 0.0
29/05:30am 10.5 7.2 6.5 76 1.9 NNW 13 22 7 12 1015.0 1015.0 0.0
29/05:00am 7.3 4.1 5.3 87 0.9 NNW 11 15 6 8 1014.8 1014.8 0.0
29/04:30am 7.1 3.6 5.3 88 0.8 N 13 20 7 11 1014.9 1014.9 0.0
29/04:00am 6.8 3.6 5.3 90 0.7 N 11 15 6 8 1015.7 1015.7 0.0
29/03:30am 6.4 3.2 5.0 91 0.6 N 11 13 6 7 1015.5 1015.5 0.0
29/03:00am 6.9 3.0 5.2 89 0.8 N 15 19 8 10 1015.8 1015.8 0.0
29/02:30am 7.0 3.6 5.8 92 0.5 N 13 15 7 8 1016.3 1016.2 0.0
29/02:00am 6.0 2.2 5.6 97 0.2 N 15 17 8 9 1016.8 1016.7 0.0
29/01:30am 6.1 3.4 5.5 96 0.3 N 9 11 5 6 1017.0 1016.9 0.0
29/01:00am 6.4 3.4 6.1 98 0.1 N 11 15 6 8 1017.1 1017.0 0.0
29/12:30am 5.9 3.5 5.3 96 0.3 NNW 7 13 4 7 1017.3 1017.2 0.0
29/12:00am 5.8 3.0 5.1 95 0.3 N 9 13 5 7 1017.6 1017.5 0.0
 
Date/Time
EDT
Temp
°C
App
Temp
°C
Dew
Point
Rel
Hum
%
Delta-T
°C
Wind Press
QNH
hPa
Press
MSL
hPa
Rain
since 9 am
mm
Dir
 
Spd
km/h
Gust
km/h
Spd
kts
Gust
kts
28/11:30pm 6.6 3.9 5.6 93 0.4 NNW 9 11 5 6 1017.8 1017.7 0.0
28/11:00pm 6.2 3.1 5.6 96 0.3 N 11 11 6 6 1018.1 1018.0 0.0
28/10:30pm 6.3 3.6 5.4 94 0.4 N 9 13 5 7 1018.4 1018.3 0.0
28/10:00pm 6.3 3.1 4.9 91 0.6 N 11 13 6 7 1018.6 1018.5 0.0
28/09:30pm 7.3 4.9 5.4 88 0.8 N 7 9 4 5 1018.6 1018.5 0.0
28/09:00pm 8.0 5.7 5.8 86 1.0 N 7 9 4 5 1018.6 1018.5 0.0
28/08:30pm 9.3 7.4 6.7 84 1.2 WNW 6 7 3 4 1018.6 1018.5 0.0
28/08:00pm 11.1 9.3 7.2 77 1.9 WNW 6 6 3 3 1018.5 1018.4 0.0
28/07:30pm 13.2 11.3 7.4 68 2.8 W 7 13 4 7 1018.5 1018.4 0.0
28/07:00pm 14.1 10.3 7.4 64 3.3 WSW 17 24 9 13 1018.4 1018.3 0.0
28/06:30pm 15.6 11.5 7.9 60 3.9 WSW 19 26 10 14 1018.2 1018.1 0.0
28/06:00pm 16.3 12.0 7.8 57 4.3 WSW 20 33 11 18 1018.2 1018.1 0.0
28/05:30pm 17.3 12.7 8.2 55 4.7 WSW 22 35 12 19 1018.2 1018.1 0.0
28/05:00pm 18.3 13.3 8.0 51 5.3 WSW 24 32 13 17 1018.1 1018.0 0.0
28/04:30pm 18.8 14.2 8.2 50 5.5 WSW 22 33 12 18 1018.1 1018.0 0.0
28/04:00pm 18.8 14.4 7.3 47 5.8 WSW 20 33 11 18 1018.1 1018.0 0.0
28/03:30pm 19.0 14.7 7.1 46 6.0 WSW 19 30 10 16 1018.5 1018.4 0.0
28/03:00pm 18.8 14.5 6.9 46 6.0 W 19 28 10 15 1018.6 1018.5 0.0
28/02:30pm 18.7 14.8 6.9 46 5.9 WNW 17 26 9 14 1018.8 1018.7 0.0
28/02:00pm 18.1 13.3 7.2 49 5.5 WNW 22 33 12 18 1019.1 1019.0 0.0
28/01:30pm 18.1 13.8 6.9 48 5.6 WNW 19 30 10 16 1019.6 1019.5 0.0
28/01:00pm 17.3 12.9 7.4 52 5.0 WNW 20 30 11 16 1019.9 1019.8 0.0
28/12:30pm 17.7 13.6 8.0 53 5.0 WNW 19 30 10 16 1020.2 1020.1 0.0
28/12:00pm 16.4 12.2 7.3 55 4.5 W 19 28 10 15 1020.8 1020.7 0.0
28/11:30am 16.2 12.7 7.4 56 4.4 WNW 15 22 8 12 1020.9 1020.8 0.0
28/11:00am 14.5 10.5 6.8 60 3.7 W 17 24 9 13 1021.2 1021.1 0.0
28/10:30am 13.9 11.3 7.7 66 3.1 WNW 11 19 6 10 1021.4 1021.3 0.0
28/10:00am 13.2 10.0 7.0 66 3.0 NW 13 17 7 9 1021.5 1021.4 0.0
28/09:30am 13.5 10.0 7.3 66 3.0 WNW 15 20 8 11 1021.5 1021.4 0.0
28/09:00am 11.7 8.9 6.8 72 2.3 NW 11 17 6 9 1021.4 1021.3 1.8
28/08:30am 11.0 9.0 7.1 77 1.9 N 7 9 4 5 1021.4 1021.3 1.8
28/08:00am 10.6 7.4 6.7 77 1.8 NNW 13 15 7 8 1021.2 1021.1 1.8
28/07:30am 10.3 7.3 6.1 75 2.0 N 11 15 6 8 1021.1 1021.0 1.8
28/07:00am 10.7 7.3 6.1 73 2.1 NNW 13 17 7 9 1021.0 1020.9 1.8
28/06:30am 11.0 8.4 6.0 71 2.3 NW 9 13 5 7 1020.8 1020.7 1.8
28/06:00am 10.9 7.1 5.9 71 2.3 WNW 15 28 8 15 1020.7 1020.6 1.8
28/05:30am 10.5 6.7 5.7 72 2.2 NW 15 24 8 13 1020.5 1020.4 1.8
28/05:00am 10.5 7.4 5.7 72 2.2 NW 11 19 6 10 1020.3 1020.2 1.8
28/04:30am 11.4 6.9 6.1 70 2.5 W 19 24 10 13 1020.3 1020.2 1.8
28/04:00am 11.7 7.0 6.2 69 2.6 WNW 20 33 11 18 1020.5 1020.4 1.8
28/03:30am 11.9 8.6 6.6 70 2.5 WNW 13 20 7 11 1020.5 1020.4 1.8
28/03:00am 11.3 9.5 7.2 76 2.0 NNW 6 9 3 5 1020.7 1020.6 1.8
28/02:30am 11.0 9.2 7.9 81 1.5 NNW 7 11 4 6 1020.7 1020.6 1.8
28/02:00am 10.8 9.0 8.0 83 1.4 NNW 7 9 4 5 1020.8 1020.7 1.8
28/01:30am 11.6 9.3 7.5 76 2.0 NNW 9 13 5 7 1020.8 1020.7 1.8
28/01:00am 12.1 9.3 7.0 71 2.4 WNW 11 17 6 9 1021.0 1020.9 1.8
28/12:30am 12.4 9.6 7.1 70 2.6 WNW 11 17 6 9 1021.0 1020.9 1.8
28/12:00am 12.3 8.5 7.4 72 2.4 W 17 24 9 13 1020.9 1020.8 1.8
 
Date/Time
EDT
Temp
°C
App
Temp
°C
Dew
Point
Rel
Hum
%
Delta-T
°C
Wind Press
QNH
hPa
Press
MSL
hPa
Rain
since 9 am
mm
Dir
 
Spd
km/h
Gust
km/h
Spd
kts
Gust
kts
27/11:30pm 12.2 8.7 7.3 72 2.4 W 15 20 8 11 1020.7 1020.6 1.8
27/11:00pm 12.2 9.1 7.3 72 2.4 SW 13 19 7 10 1020.6 1020.5 1.8
27/10:30pm 12.3 10.1 8.0 75 2.1 W 9 15 5 8 1020.4 1020.3 1.8
27/10:00pm 12.8 10.4 8.5 75 2.1 W 11 19 6 10 1020.3 1020.2 1.8
27/09:30pm 12.3 10.9 8.8 79 1.8 N 6 11 3 6 1020.1 1020.0 1.8
27/09:00pm 11.3 9.7 8.9 85 1.2 WNW 7 11 4 6 1019.9 1019.8 1.8
27/08:30pm 11.4 10.8 8.8 84 1.3 NE 2 7 1 4 1019.5 1019.4 1.8
27/08:00pm 12.2 10.7 8.5 78 1.8 NNW 6 7 3 4 1019.1 1019.0 1.8
27/07:30pm 13.4 11.6 8.0 70 2.7 W 7 11 4 6 1018.7 1018.6 1.8
27/07:00pm 14.3 11.8 8.0 66 3.1 S 11 17 6 9 1018.2 1018.1 1.8
27/06:30pm 14.5 12.0 8.2 66 3.2 S 11 17 6 9 1017.8 1017.7 1.8
27/06:00pm 14.8 11.9 8.3 65 3.3 SSE 13 20 7 11 1017.3 1017.2 1.8
27/05:30pm 14.8 12.4 8.7 67 3.1 SSE 11 17 6 9 1016.9 1016.8 1.8
27/05:00pm 15.1 11.5 8.3 64 3.4 SSE 17 24 9 13 1016.6 1016.5 1.8
27/04:30pm 15.2 12.0 8.4 64 3.4 S 15 20 8 11 1016.4 1016.3 1.8
27/04:00pm 15.1 10.5 8.1 63 3.5 S 22 32 12 17 1016.0 1016.0 1.8

Other Formats:

Comma delimited format used in spreadsheet applications
http://www.bom.gov.au/fwo/IDT60801/IDT60801.94957.axf

JavaScript Object Notation format (JSON) in row-major order
http://www.bom.gov.au/fwo/IDT60801/IDT60801.94957.json